Time;durP1;ratioP1;P1;durP2;ratioP2;P2;SDS_P1;SDS_P2;PMS_P1;PMS_P2;Temp;Humidity;BMP_temperature;BMP_pressure;BME280_temperature;BME280_humidity;BME280_pressure;Samples;Min_cycle;Max_cycle;Signal;HPM_P1;HPM_P2
2022/07/01 00:01:12;;;;;;;10.70;5.72;;;22.80;95.10;;;;;;4210652;28;20032;-62
2022/07/01 00:03:13;;;;;;;7.72;6.00;;;22.60;95.40;;;;;;4211267;28;20051;-66
2022/07/01 00:05:14;;;;;;;11.52;6.45;;;22.50;95.80;;;;;;4210342;28;20035;-61
2022/07/01 00:07:16;;;;;;;10.05;5.60;;;22.50;96.10;;;;;;4211502;28;20501;-64
2022/07/01 00:09:17;;;;;;;7.18;4.90;;;22.40;96.50;;;;;;4210447;28;20032;-64
2022/07/01 00:11:18;;;;;;;7.85;6.10;;;22.40;96.60;;;;;;4211368;28;20065;-62
2022/07/01 00:13:19;;;;;;;7.95;5.50;;;22.50;96.80;;;;;;4205690;28;20044;-62
2022/07/01 00:15:21;;;;;;;8.55;5.78;;;22.50;96.90;;;;;;4211776;28;20097;-65
2022/07/01 00:17:23;;;;;;;13.35;5.53;;;22.50;97.00;;;;;;4210326;28;20028;-61
2022/07/01 00:19:27;;;;;;;8.23;6.03;;;22.50;97.20;;;;;;4211544;28;20035;-62
2022/07/01 00:21:28;;;;;;;7.15;5.20;;;22.50;97.20;;;;;;4210105;28;20035;-63
2022/07/01 00:23:30;;;;;;;14.57;6.47;;;22.50;97.20;;;;;;4211238;28;20114;-63
2022/07/01 00:25:32;;;;;;;6.70;5.60;;;22.60;97.30;;;;;;4210090;28;20036;-62
2022/07/01 00:27:33;;;;;;;10.40;5.43;;;22.50;97.40;;;;;;4194002;28;20450;-63
2022/07/01 00:29:34;;;;;;;9.40;5.50;;;22.50;97.50;;;;;;4194099;28;20465;-62
2022/07/01 00:31:35;;;;;;;8.98;5.53;;;22.50;97.70;;;;;;4196072;28;20144;-64
2022/07/01 00:33:37;;;;;;;10.57;5.72;;;22.50;97.90;;;;;;4211068;28;20086;-67
2022/07/01 00:35:38;;;;;;;8.80;6.00;;;22.50;98.10;;;;;;4210045;28;20081;-63
2022/07/01 00:37:39;;;;;;;12.25;5.70;;;22.40;98.20;;;;;;4211390;28;20070;-61
2022/07/01 00:39:42;;;;;;;6.72;5.47;;;22.40;98.40;;;;;;4210117;28;20032;-61
2022/07/01 00:41:43;;;;;;;7.57;5.55;;;22.40;98.60;;;;;;4211102;28;20036;-65
2022/07/01 00:43:44;;;;;;;6.85;5.55;;;22.40;98.70;;;;;;4209936;28;20037;-63
2022/07/01 00:45:48;;;;;;;8.05;5.30;;;22.50;98.70;;;;;;4211272;28;20028;-62
2022/07/01 00:47:50;;;;;;;8.57;4.68;;;22.50;98.80;;;;;;4208644;28;20036;-62
2022/07/01 00:49:51;;;;;;;7.47;5.10;;;22.50;98.90;;;;;;4211170;28;20090;-63
2022/07/01 00:51:53;;;;;;;7.35;5.45;;;22.50;99.10;;;;;;4209977;28;20097;-64
2022/07/01 00:53:54;;;;;;;5.68;5.07;;;22.40;99.30;;;;;;4211173;28;20020;-65
2022/07/01 00:55:56;;;;;;;9.63;6.15;;;22.40;99.50;;;;;;4209590;28;20032;-62
2022/07/01 00:57:58;;;;;;;9.68;5.82;;;22.40;99.70;;;;;;4210876;28;20426;-64
2022/07/01 01:00:00;;;;;;;5.45;4.95;;;22.40;99.80;;;;;;4210949;28;20048;-63
2022/07/01 01:02:02;;;;;;;11.32;5.55;;;22.40;99.80;;;;;;4213825;28;20098;-66
2022/07/01 01:04:03;;;;;;;8.88;5.63;;;22.40;99.90;;;;;;4212394;28;20052;-64
2022/07/01 01:06:05;;;;;;;9.23;5.10;;;22.30;99.90;;;;;;4196868;28;20048;-65
2022/07/01 01:08:09;;;;;;;7.47;5.13;;;22.30;99.90;;;;;;4211473;28;20086;-61
2022/07/01 01:10:10;;;;;;;7.70;5.35;;;22.30;99.90;;;;;;4213272;28;20085;-67
2022/07/01 01:12:12;;;;;;;7.63;5.25;;;22.30;99.90;;;;;;4214207;28;20073;-61
2022/07/01 01:14:15;;;;;;;7.75;5.03;;;22.20;99.90;;;;;;4213189;28;20032;-64
2022/07/01 01:16:18;;;;;;;9.77;5.03;;;22.10;99.90;;;;;;4214227;28;20101;-65
2022/07/01 01:18:19;;;;;;;7.97;5.20;;;22.00;99.90;;;;;;4213365;28;20082;-62
2022/07/01 01:20:20;;;;;;;6.40;4.97;;;21.90;99.90;;;;;;4214298;28;21120;-63
2022/07/01 01:22:21;;;;;;;6.60;4.88;;;22.00;99.90;;;;;;4202929;28;20078;-61
2022/07/01 01:24:22;;;;;;;7.80;4.60;;;22.00;99.90;;;;;;4197616;28;20028;-66
2022/07/01 01:26:25;;;;;;;5.97;4.72;;;22.00;99.90;;;;;;4196347;28;20407;-62
2022/07/01 01:28:26;;;;;;;6.90;5.22;;;22.10;99.90;;;;;;4197191;28;20531;-65
2022/07/01 01:30:27;;;;;;;5.80;5.07;;;22.00;99.90;;;;;;4196357;28;20005;-61
2022/07/01 01:32:28;;;;;;;10.43;6.40;;;22.00;99.90;;;;;;4197140;28;20086;-68
2022/07/01 01:34:29;;;;;;;7.55;5.47;;;22.00;99.90;;;;;;4198762;28;20473;-67
2022/07/01 01:36:31;;;;;;;8.15;5.03;;;22.00;99.90;;;;;;4213173;28;20032;-64
2022/07/01 01:38:36;;;;;;;5.75;4.97;;;21.90;99.90;;;;;;4213823;28;20078;-62
2022/07/01 01:40:38;;;;;;;7.80;5.78;;;21.90;99.90;;;;;;4212027;28;20145;-62
2022/07/01 01:42:39;;;;;;;8.88;5.20;;;21.90;99.90;;;;;;4213520;28;20032;-63
2022/07/01 01:44:40;;;;;;;8.30;5.53;;;21.80;99.90;;;;;;4212725;28;20073;-66
2022/07/01 01:46:41;;;;;;;8.95;5.13;;;21.80;99.90;;;;;;4213662;28;20113;-65
2022/07/01 01:48:43;;;;;;;7.65;4.78;;;21.80;99.90;;;;;;4213024;28;20501;-65
2022/07/01 01:50:44;;;;;;;5.57;4.65;;;21.80;99.90;;;;;;4213626;28;20537;-63
2022/07/01 01:52:45;;;;;;;6.60;4.75;;;21.80;99.90;;;;;;4212519;28;20481;-64
2022/07/01 01:54:46;;;;;;;8.95;5.78;;;21.80;99.90;;;;;;4213647;28;20085;-63
2022/07/01 01:56:47;;;;;;;8.20;4.53;;;21.80;99.90;;;;;;4195627;28;20508;-66
2022/07/01 01:58:49;;;;;;;5.97;4.78;;;21.70;99.90;;;;;;4197135;28;20109;-67
2022/07/01 02:00:50;;;;;;;7.97;4.90;;;21.70;99.90;;;;;;4195708;28;20028;-65
2022/07/01 02:02:52;;;;;;;4.90;4.38;;;21.60;99.90;;;;;;4196598;28;20024;-64
2022/07/01 02:04:53;;;;;;;5.35;4.65;;;21.40;99.90;;;;;;4196006;28;20373;-63
2022/07/01 02:06:54;;;;;;;5.95;4.20;;;21.40;99.90;;;;;;4196436;28;20111;-63
2022/07/01 02:08:55;;;;;;;6.53;4.47;;;21.30;99.90;;;;;;4196541;28;20086;-67
2022/07/01 02:10:57;;;;;;;6.95;4.20;;;21.20;99.90;;;;;;4201934;28;20200;-64
2022/07/01 02:12:58;;;;;;;6.45;4.43;;;21.20;99.90;;;;;;4213257;28;20047;-61
2022/07/01 02:14:59;;;;;;;10.00;4.30;;;21.20;99.90;;;;;;4212065;28;20078;-63
2022/07/01 02:17:00;;;;;;;6.05;4.68;;;21.10;99.90;;;;;;4201184;28;20450;-63
2022/07/01 02:19:01;;;;;;;7.28;4.38;;;21.10;99.90;;;;;;4195868;28;20464;-63
2022/07/01 02:21:03;;;;;;;6.57;4.22;;;21.10;99.90;;;;;;4196605;28;20024;-61
2022/07/01 02:23:04;;;;;;;7.45;5.32;;;21.00;99.90;;;;;;4195561;28;20358;-62
2022/07/01 02:25:05;;;;;;;8.13;4.75;;;21.10;99.90;;;;;;4196368;28;20033;-68
2022/07/01 02:27:07;;;;;;;8.52;4.57;;;21.10;99.90;;;;;;4194959;28;20455;-66
2022/07/01 02:29:08;;;;;;;8.30;4.40;;;21.00;99.90;;;;;;4196689;28;20029;-66
2022/07/01 02:31:09;;;;;;;8.55;4.68;;;21.00;99.90;;;;;;4201449;28;20036;-65
2022/07/01 02:33:11;;;;;;;4.68;4.05;;;21.10;99.90;;;;;;4210483;28;20431;-64
2022/07/01 02:35:13;;;;;;;6.93;4.35;;;21.10;99.90;;;;;;4210648;28;20039;-61
2022/07/01 02:37:14;;;;;;;5.68;4.20;;;21.20;99.90;;;;;;4212434;28;20016;-61
2022/07/01 02:39:16;;;;;;;5.75;4.43;;;21.30;99.90;;;;;;4211830;28;20020;-62
2022/07/01 02:41:17;;;;;;;11.27;5.18;;;21.30;99.90;;;;;;4211755;28;20043;-63
2022/07/01 02:43:18;;;;;;;6.88;5.18;;;21.30;99.90;;;;;;4212706;28;20028;-61
2022/07/01 02:45:19;;;;;;;8.25;5.15;;;21.30;99.90;;;;;;4206928;28;20530;-61
2022/07/01 02:47:21;;;;;;;8.82;4.97;;;21.20;99.90;;;;;;4196005;28;20098;-63
2022/07/01 02:49:22;;;;;;;7.60;4.90;;;21.10;99.90;;;;;;4195558;28;20054;-65
2022/07/01 02:51:23;;;;;;;11.07;5.90;;;21.10;99.90;;;;;;4196156;28;20044;-66
2022/07/01 02:53:24;;;;;;;5.57;5.03;;;21.00;99.90;;;;;;4195174;28;20040;-63
2022/07/01 02:55:26;;;;;;;6.65;5.15;;;21.00;99.90;;;;;;4196005;28;20082;-64
2022/07/01 02:57:27;;;;;;;6.03;5.43;;;21.00;99.90;;;;;;4193457;28;20024;-65
2022/07/01 02:59:29;;;;;;;9.13;5.63;;;20.90;99.90;;;;;;4196182;28;20042;-63
2022/07/01 03:01:30;;;;;;;6.40;5.40;;;20.90;99.90;;;;;;4194735;28;20028;-62
2022/07/01 03:03:31;;;;;;;11.75;5.38;;;21.00;99.90;;;;;;4203510;28;20109;-67
2022/07/01 03:05:32;;;;;;;9.82;5.50;;;21.00;99.90;;;;;;4211499;28;20028;-67
2022/07/01 03:07:36;;;;;;;8.05;4.88;;;20.90;99.90;;;;;;4211971;28;20044;-68
2022/07/01 03:09:39;;;;;;;9.50;5.07;;;20.90;99.90;;;;;;4206544;28;20032;-63
2022/07/01 03:11:40;;;;;;;6.70;4.63;;;21.00;99.90;;;;;;4194948;28;20777;-61
2022/07/01 03:13:41;;;;;;;8.23;4.70;;;21.00;99.90;;;;;;4195243;28;20174;-62
2022/07/01 03:15:43;;;;;;;10.38;4.88;;;21.10;99.90;;;;;;4194251;28;20036;-63
2022/07/01 03:17:46;;;;;;;7.95;4.80;;;21.30;99.90;;;;;;4195385;28;20427;-62
2022/07/01 03:19:48;;;;;;;7.00;5.30;;;21.60;99.90;;;;;;4195044;28;20097;-63
2022/07/01 03:21:49;;;;;;;6.00;4.30;;;21.90;99.90;;;;;;4195593;28;20040;-66
2022/07/01 03:23:50;;;;;;;6.68;4.20;;;22.30;99.90;;;;;;4193998;28;20044;-68
2022/07/01 03:25:51;;;;;;;9.10;5.28;;;22.60;99.90;;;;;;4203738;28;20094;-62
2022/07/01 03:27:52;;;;;;;6.55;4.45;;;22.90;99.90;;;;;;4210898;28;20495;-64
2022/07/01 03:29:54;;;;;;;7.60;4.32;;;23.20;99.90;;;;;;4212311;28;20049;-62
2022/07/01 03:31:55;;;;;;;9.13;4.72;;;23.40;99.90;;;;;;4210981;28;20036;-62
2022/07/01 03:33:56;;;;;;;7.93;3.90;;;23.70;99.90;;;;;;4211935;28;20484;-67
2022/07/01 03:35:57;;;;;;;8.63;4.97;;;23.90;99.90;;;;;;4210590;28;20132;-63
2022/07/01 03:38:00;;;;;;;7.13;5.22;;;24.10;99.90;;;;;;4211739;28;20078;-64
2022/07/01 03:40:01;;;;;;;9.10;4.00;;;24.40;99.90;;;;;;4196736;28;20025;-61
2022/07/01 03:42:03;;;;;;;6.15;4.30;;;24.20;99.90;;;;;;4199076;28;20630;-66
2022/07/01 03:44:08;;;;;;;6.72;5.00;;;24.30;99.90;;;;;;4204161;28;20441;-63
2022/07/01 03:46:09;;;;;;;8.88;5.38;;;24.40;99.90;;;;;;4199397;28;20037;-67
2022/07/01 03:48:10;;;;;;;10.88;5.20;;;24.50;99.90;;;;;;4194595;28;20499;-66
2022/07/01 03:50:12;;;;;;;11.60;5.40;;;24.40;99.90;;;;;;4194023;28;20458;-61
2022/07/01 03:52:13;;;;;;;12.82;5.13;;;24.20;99.90;;;;;;4205810;28;20032;-65
2022/07/01 03:54:29;;;;;;;8.90;5.78;;;24.30;99.90;;;;;;4210384;28;20077;-61
2022/07/01 03:56:30;;;;;;;16.27;6.63;;;24.50;99.90;;;;;;4200296;28;20103;-63
2022/07/01 03:58:31;;;;;;;13.15;5.22;;;24.50;99.90;;;;;;4194478;28;20036;-65
2022/07/01 04:00:35;;;;;;;12.32;5.13;;;24.90;99.90;;;;;;4196901;28;20040;-61
2022/07/01 04:02:36;;;;;;;15.73;5.05;;;25.60;99.80;;;;;;4193398;28;20101;-65
2022/07/01 04:04:37;;;;;;;8.50;4.47;;;26.40;98.80;;;;;;4194617;28;20443;-62
2022/07/01 04:06:38;;;;;;;6.32;4.72;;;27.00;97.80;;;;;;4193058;28;20093;-67
2022/07/01 04:08:40;;;;;;;12.88;4.47;;;27.30;97.00;;;;;;4194824;28;20049;-64
2022/07/01 04:10:41;;;;;;;12.40;4.80;;;27.70;96.30;;;;;;4193617;28;20094;-63
2022/07/01 04:12:43;;;;;;;12.25;5.20;;;28.20;95.60;;;;;;4194516;28;20071;-64
2022/07/01 04:14:44;;;;;;;8.77;4.95;;;28.60;94.80;;;;;;4193640;28;20412;-64
2022/07/01 04:16:46;;;;;;;7.57;4.60;;;28.80;94.40;;;;;;4193954;28;20060;-65
2022/07/01 04:18:48;;;;;;;10.85;4.97;;;29.00;93.90;;;;;;4190794;28;20098;-62
2022/07/01 04:23:09;;;;;;;11.43;4.07;;;29.60;93.00;;;;;;4187599;28;20542;-63
2022/07/01 04:25:10;;;;;;;7.47;4.43;;;29.80;92.70;;;;;;4193604;28;20040;-63
2022/07/01 04:27:11;;;;;;;5.97;4.20;;;30.40;92.20;;;;;;4193940;28;20558;-67
2022/07/01 04:29:12;;;;;;;9.27;4.72;;;30.80;91.30;;;;;;4206808;28;20036;-70
2022/07/01 04:31:14;;;;;;;7.72;4.13;;;31.30;90.70;;;;;;4211122;28;20044;-62
2022/07/01 04:33:15;;;;;;;5.28;4.38;;;31.70;90.20;;;;;;4210037;28;20081;-71
2022/07/01 04:35:16;;;;;;;6.20;3.90;;;31.90;88.30;;;;;;4188475;28;20090;-63
2022/07/01 04:37:17;;;;;;;4.50;4.07;;;31.80;87.20;;;;;;4192871;28;20062;-62
2022/07/01 04:39:18;;;;;;;5.90;3.95;;;31.80;86.30;;;;;;4194883;28;20074;-62
2022/07/01 04:43:40;;;;;;;;;;;32.10;85.00;;;;;;4195544;28;20388;-63
2022/07/01 04:45:41;;;;;;;4.47;3.97;;;32.40;81.30;;;;;;4193406;28;20265;-67
2022/07/01 04:47:42;;;;;;;8.85;4.15;;;32.80;83.40;;;;;;4194023;28;20059;-68
2022/07/01 04:49:43;;;;;;;5.93;4.32;;;32.90;82.00;;;;;;4193791;28;20165;-68
2022/07/01 04:51:44;;;;;;;5.75;3.45;;;33.10;81.20;;;;;;4194229;28;20028;-66
2022/07/01 04:53:46;;;;;;;5.05;3.78;;;33.30;80.50;;;;;;4192971;28;20083;-68
2022/07/01 04:55:47;;;;;;;5.75;3.80;;;33.50;79.50;;;;;;4193755;28;20443;-66
2022/07/01 04:57:48;;;;;;;6.95;3.72;;;33.60;78.80;;;;;;4193756;28;20032;-64
2022/07/01 04:59:49;;;;;;;7.78;3.97;;;33.80;78.10;;;;;;4193591;28;20094;-70
2022/07/01 05:01:52;;;;;;;8.88;4.18;;;33.80;77.60;;;;;;4194089;28;20416;-65
2022/07/01 05:03:53;;;;;;;6.82;3.53;;;33.70;77.20;;;;;;4193044;28;20052;-68
2022/07/01 05:05:55;;;;;;;5.63;3.85;;;33.70;76.70;;;;;;4194204;28;20086;-63
2022/07/01 05:07:56;;;;;;;7.78;4.10;;;33.60;76.40;;;;;;4193068;28;20045;-67
2022/07/01 05:10:01;;;;;;;8.18;3.75;;;33.40;76.30;;;;;;4194232;28;20087;-65
2022/07/01 05:12:02;;;;;;;5.28;3.92;;;33.50;76.00;;;;;;4192932;28;20032;-67
2022/07/01 05:14:03;;;;;;;9.63;4.07;;;33.70;75.60;;;;;;4194232;28;20021;-64
2022/07/01 05:16:06;;;;;;;8.05;3.72;;;33.60;75.20;;;;;;4192819;28;20029;-68
2022/07/01 05:22:46;;;;;;;8.35;4.35;;;33.90;74.10;;;;;;4193819;28;20048;-63
2022/07/01 05:24:47;;;;;;;6.63;3.80;;;34.30;73.50;;;;;;4189544;28;20106;-63
2022/07/01 05:26:49;;;;;;;6.13;3.88;;;34.50;72.80;;;;;;4189472;28;20476;-63
2022/07/01 05:28:50;;;;;;;8.30;4.03;;;34.80;72.30;;;;;;4176074;28;20091;-63
2022/07/01 05:30:51;;;;;;;5.50;4.10;;;34.30;72.00;;;;;;4177778;28;20029;-62
2022/07/01 05:32:53;;;;;;;4.95;4.50;;;33.90;72.40;;;;;;4176670;28;20054;-61
2022/07/01 05:34:54;;;;;;;6.80;4.38;;;33.50;72.70;;;;;;4191262;28;20040;-61
2022/07/01 05:36:55;;;;;;;9.00;4.88;;;33.60;72.80;;;;;;4200176;28;20032;-62
2022/07/01 05:38:56;;;;;;;7.82;4.63;;;33.70;72.50;;;;;;4201327;28;20073;-62
2022/07/01 05:40:57;;;;;;;7.43;5.43;;;34.00;72.10;;;;;;4194107;28;20427;-62
2022/07/01 05:42:58;;;;;;;5.97;3.90;;;34.10;71.60;;;;;;4191456;28;20530;-63
2022/07/01 05:45:00;;;;;;;5.95;4.03;;;33.70;71.80;;;;;;4191196;28;20427;-63
2022/07/01 05:47:01;;;;;;;5.68;3.85;;;34.20;71.70;;;;;;4195026;28;20922;-62
2022/07/01 05:49:02;;;;;;;8.23;3.90;;;34.40;71.30;;;;;;4196739;28;20025;-63
2022/07/01 05:51:05;;;;;;;9.75;4.40;;;34.70;70.80;;;;;;4195477;28;20914;-62
2022/07/01 05:53:07;;;;;;;6.85;4.05;;;34.90;70.50;;;;;;4194657;28;20484;-62
2022/07/01 05:55:08;;;;;;;7.20;3.92;;;35.50;69.90;;;;;;4194714;28;20387;-63
2022/07/01 05:57:10;;;;;;;8.73;4.22;;;35.90;69.00;;;;;;4195610;28;20028;-66
2022/07/01 05:59:12;;;;;;;8.93;4.38;;;36.20;68.40;;;;;;4194139;28;20193;-66
2022/07/01 06:01:14;;;;;;;8.75;4.25;;;35.70;68.20;;;;;;4195678;28;20555;-64
2022/07/01 06:03:15;;;;;;;5.95;4.00;;;35.40;68.60;;;;;;4194762;28;20086;-62
2022/07/01 06:05:16;;;;;;;7.57;4.40;;;35.30;69.00;;;;;;4196401;28;20033;-63
2022/07/01 06:07:17;;;;;;;7.43;4.00;;;35.40;68.70;;;;;;4195093;28;20043;-67
2022/07/01 06:09:19;;;;;;;7.07;4.47;;;35.70;68.40;;;;;;4197642;28;20052;-63
2022/07/01 06:11:20;;;;;;;6.78;4.20;;;35.90;67.90;;;;;;4195624;28;20442;-67
2022/07/01 06:13:21;;;;;;;4.95;3.67;;;36.10;67.70;;;;;;4194767;28;20090;-67
2022/07/01 06:15:22;;;;;;;10.43;4.30;;;35.80;67.40;;;;;;4195668;28;20101;-65
2022/07/01 06:17:23;;;;;;;4.82;4.20;;;35.60;67.50;;;;;;4195694;28;20070;-62
2022/07/01 06:19:24;;;;;;;10.20;4.28;;;34.80;68.10;;;;;;4194993;28;20036;-63
2022/07/01 06:21:26;;;;;;;7.22;4.03;;;34.30;68.80;;;;;;4195197;28;20125;-62
2022/07/01 06:23:27;;;;;;;7.40;4.32;;;33.90;69.50;;;;;;4196687;28;20502;-61
2022/07/01 06:25:28;;;;;;;9.93;4.80;;;34.00;69.70;;;;;;4211415;28;20069;-61
2022/07/01 06:27:30;;;;;;;8.68;4.38;;;34.40;69.60;;;;;;4212333;28;20804;-62
2022/07/01 06:29:31;;;;;;;6.05;4.05;;;34.90;69.10;;;;;;4211918;28;20677;-62
2022/07/01 06:31:35;;;;;;;6.30;4.60;;;35.70;68.20;;;;;;4212767;28;20032;-62
2022/07/01 06:33:36;;;;;;;7.00;4.07;;;35.80;67.90;;;;;;4211993;28;20112;-62
2022/07/01 06:35:37;;;;;;;8.43;4.10;;;35.50;68.10;;;;;;4213044;28;20430;-62
2022/07/01 06:37:39;;;;;;;7.53;4.35;;;35.40;68.20;;;;;;4211476;28;20028;-62
2022/07/01 06:39:40;;;;;;;13.05;4.30;;;35.10;68.40;;;;;;4206786;28;20077;-63
2022/07/01 06:41:41;;;;;;;7.20;4.85;;;34.50;68.90;;;;;;4197490;28;20028;-63
2022/07/01 06:43:43;;;;;;;5.80;4.35;;;34.30;69.40;;;;;;4209900;28;20044;-63
2022/07/01 06:45:44;;;;;;;16.65;5.18;;;34.00;69.90;;;;;;4212200;28;20028;-62
2022/07/01 06:47:45;;;;;;;11.77;5.22;;;33.60;69.90;;;;;;4211639;28;20472;-65
2022/07/01 06:49:46;;;;;;;8.02;4.10;;;33.10;70.50;;;;;;4212359;28;20032;-62
2022/07/01 06:51:47;;;;;;;11.55;4.60;;;32.50;71.50;;;;;;4211053;28;20077;-63
2022/07/01 06:53:49;;;;;;;10.85;4.40;;;32.40;72.10;;;;;;4210092;28;20040;-62
2022/07/01 06:55:51;;;;;;;6.68;4.78;;;32.70;72.10;;;;;;4209064;28;20093;-63
2022/07/01 06:57:52;;;;;;;6.80;4.50;;;32.90;71.90;;;;;;4210518;28;20036;-64
2022/07/01 06:59:53;;;;;;;9.18;4.63;;;32.70;71.90;;;;;;4210952;28;20097;-67
2022/07/01 07:01:54;;;;;;;12.88;4.97;;;32.80;72.30;;;;;;4212095;28;20058;-62
2022/07/01 07:03:55;;;;;;;8.40;4.50;;;33.00;72.10;;;;;;4210886;28;20054;-62
2022/07/01 07:05:58;;;;;;;8.38;4.50;;;33.30;71.70;;;;;;4211982;28;20085;-61
2022/07/01 07:08:00;;;;;;;5.80;4.93;;;32.80;71.90;;;;;;4200260;28;20094;-62
2022/07/01 07:10:01;;;;;;;8.90;5.40;;;33.00;72.40;;;;;;4195629;28;20439;-65
2022/07/01 07:12:02;;;;;;;9.90;4.95;;;32.70;72.30;;;;;;4194166;28;20054;-62
2022/07/01 07:14:04;;;;;;;7.50;4.95;;;32.50;72.30;;;;;;4194940;28;20036;-64
2022/07/01 07:16:05;;;;;;;5.93;4.82;;;32.40;72.50;;;;;;4194888;28;20473;-62
2022/07/01 07:18:07;;;;;;;7.35;5.07;;;32.00;72.80;;;;;;4194181;28;20093;-64
2022/07/01 07:20:08;;;;;;;9.32;5.35;;;31.90;73.20;;;;;;4195319;28;20032;-62
2022/07/01 07:22:10;;;;;;;18.95;6.60;;;31.90;73.40;;;;;;4200471;28;20035;-63
2022/07/01 07:24:11;;;;;;;11.68;5.60;;;31.80;73.70;;;;;;4211977;28;20028;-63
2022/07/01 07:26:12;;;;;;;9.10;5.40;;;31.90;73.70;;;;;;4209151;28;20529;-61
2022/07/01 07:28:14;;;;;;;17.70;5.55;;;32.10;73.30;;;;;;4209798;28;20147;-63
2022/07/01 07:30:16;;;;;;;10.35;5.18;;;32.30;72.70;;;;;;4206471;28;20032;-66
2022/07/01 07:32:17;;;;;;;16.30;4.82;;;32.40;72.40;;;;;;4195033;28;20431;-62
2022/07/01 07:34:19;;;;;;;12.85;4.45;;;32.60;72.40;;;;;;4198080;28;20110;-65
2022/07/01 07:36:20;;;;;;;14.50;5.50;;;32.50;72.10;;;;;;4195636;28;20040;-62
2022/07/01 07:38:21;;;;;;;11.55;5.65;;;32.60;72.20;;;;;;4194045;28;20040;-64
2022/07/01 07:40:22;;;;;;;9.63;5.55;;;33.00;72.10;;;;;;4198536;28;20020;-62
2022/07/01 07:42:23;;;;;;;13.45;5.47;;;32.90;71.80;;;;;;4193917;28;20028;-62
2022/07/01 07:44:25;;;;;;;8.88;5.00;;;32.60;71.80;;;;;;4194462;28;20451;-64
2022/07/01 07:46:26;;;;;;;7.90;4.80;;;32.40;72.00;;;;;;4194201;28;20036;-63
2022/07/01 07:48:27;;;;;;;11.05;4.78;;;32.40;72.60;;;;;;4193993;28;20045;-64
2022/07/01 07:50:28;;;;;;;7.97;5.05;;;32.40;72.00;;;;;;4211348;28;20036;-62
2022/07/01 07:52:30;;;;;;;11.02;4.97;;;32.50;71.90;;;;;;4210645;28;20088;-62
2022/07/01 07:54:31;;;;;;;6.10;4.05;;;32.50;71.60;;;;;;4211314;28;20016;-60
2022/07/01 07:56:32;;;;;;;11.90;4.70;;;32.70;71.30;;;;;;4197068;28;20032;-62
2022/07/01 07:58:33;;;;;;;8.00;4.45;;;33.10;70.90;;;;;;4194406;28;20036;-62
2022/07/01 08:00:35;;;;;;;7.30;5.63;;;33.30;70.40;;;;;;4191702;28;20028;-66
2022/07/01 08:02:36;;;;;;;9.75;4.60;;;33.20;70.50;;;;;;4194060;28;20056;-62
2022/07/01 08:04:37;;;;;;;8.05;4.45;;;33.00;70.60;;;;;;4195091;28;20083;-62
2022/07/01 08:06:38;;;;;;;7.53;4.25;;;33.00;70.60;;;;;;4194151;28;20406;-62
2022/07/01 08:08:40;;;;;;;11.65;4.85;;;32.80;70.70;;;;;;4192911;28;20048;-63
2022/07/01 08:10:41;;;;;;;8.98;5.00;;;32.80;70.80;;;;;;4194680;28;20085;-61
2022/07/01 08:12:42;;;;;;;15.32;4.60;;;33.10;70.50;;;;;;4193379;28;20020;-61
2022/07/01 08:14:44;;;;;;;7.35;4.10;;;33.10;69.90;;;;;;4194474;28;20024;-61
2022/07/01 08:16:45;;;;;;;7.25;4.70;;;33.20;69.40;;;;;;4194018;28;20029;-62
2022/07/01 08:18:46;;;;;;;11.15;4.30;;;33.30;69.60;;;;;;4200942;28;20109;-61
2022/07/01 08:20:47;;;;;;;6.97;4.35;;;33.70;69.40;;;;;;4194913;28;20094;-65
2022/07/01 08:22:48;;;;;;;6.00;3.60;;;34.00;69.10;;;;;;4192763;28;20078;-65
2022/07/01 08:24:49;;;;;;;6.10;3.83;;;34.30;68.70;;;;;;4193799;28;20177;-61
2022/07/01 08:26:51;;;;;;;7.55;4.03;;;34.60;68.10;;;;;;4176974;28;20082;-63
2022/07/01 08:28:52;;;;;;;7.72;4.30;;;34.80;67.60;;;;;;4191331;28;20040;-64
2022/07/01 08:30:53;;;;;;;4.95;4.07;;;34.80;67.60;;;;;;4192665;28;20059;-61
2022/07/01 08:32:54;;;;;;;7.57;4.07;;;34.50;67.00;;;;;;4194414;28;20028;-63
2022/07/01 08:34:55;;;;;;;8.45;3.83;;;34.20;67.20;;;;;;4176882;28;20040;-67
2022/07/01 08:36:56;;;;;;;6.50;4.07;;;33.80;67.20;;;;;;4207760;28;20097;-66
2022/07/01 08:38:57;;;;;;;8.75;3.75;;;33.70;67.10;;;;;;4199994;28;20435;-65
2022/07/01 08:41:00;;;;;;;7.00;3.85;;;33.70;67.10;;;;;;4194388;28;20025;-63
2022/07/01 08:43:05;;;;;;;7.88;3.63;;;33.90;66.80;;;;;;4195303;28;20028;-66
2022/07/01 08:45:07;;;;;;;5.95;3.63;;;33.80;66.70;;;;;;4210830;28;20032;-65
2022/07/01 08:47:13;;;;;;;6.07;3.70;;;33.90;66.40;;;;;;4210352;28;20081;-64
2022/07/01 08:49:16;;;;;;;5.38;3.90;;;33.80;66.30;;;;;;4210659;28;20389;-66
2022/07/01 08:51:17;;;;;;;5.82;3.40;;;33.70;66.40;;;;;;4197612;28;20469;-63
2022/07/01 08:53:18;;;;;;;6.90;3.47;;;33.60;66.10;;;;;;4192472;28;20032;-64
2022/07/01 08:55:21;;;;;;;5.35;3.70;;;33.40;66.20;;;;;;4193803;28;20032;-61
2022/07/01 08:57:23;;;;;;;5.50;3.35;;;33.30;66.80;;;;;;4196090;28;20533;-61
2022/07/01 08:59:26;;;;;;;5.85;3.50;;;33.50;66.10;;;;;;4197467;28;20024;-61
2022/07/01 09:01:27;;;;;;;4.78;3.42;;;33.80;65.90;;;;;;4192598;28;20485;-64
2022/07/01 09:03:28;;;;;;;4.25;3.90;;;33.70;65.30;;;;;;4192379;28;20063;-66
2022/07/01 09:05:31;;;;;;;8.52;4.35;;;33.70;65.20;;;;;;4192839;28;20040;-65
2022/07/01 09:07:36;;;;;;;7.45;3.63;;;33.80;65.20;;;;;;4193442;28;20728;-63
2022/07/01 09:09:39;;;;;;;9.73;3.92;;;33.70;65.00;;;;;;4193341;28;20102;-63
2022/07/01 09:11:53;;;;;;;4.45;4.05;;;33.70;65.10;;;;;;4194495;28;20090;-63
2022/07/01 09:14:15;;;;;;;6.15;3.70;;;33.80;64.60;;;;;;4182152;28;20049;-65
2022/07/01 09:16:16;;;;;;;5.70;3.90;;;33.70;64.30;;;;;;4177615;28;20310;-64
2022/07/01 09:18:18;;;;;;;6.40;3.55;;;33.40;65.10;;;;;;4182879;28;20439;-68
2022/07/01 09:20:26;;;;;;;5.07;3.58;;;33.50;65.10;;;;;;4194322;28;20090;-65
2022/07/01 09:22:27;;;;;;;5.28;3.40;;;33.80;65.10;;;;;;4198915;28;20497;-65
2022/07/01 09:24:28;;;;;;;7.05;3.72;;;34.10;64.90;;;;;;4213642;28;20137;-64
2022/07/01 09:26:30;;;;;;;4.30;3.72;;;34.40;64.60;;;;;;4212607;28;20074;-67
2022/07/01 09:28:31;;;;;;;5.32;3.83;;;34.50;64.40;;;;;;4213454;28;20434;-61
2022/07/01 09:30:33;;;;;;;5.93;3.58;;;34.80;64.50;;;;;;4204010;28;20073;-62
2022/07/01 09:32:34;;;;;;;9.00;4.10;;;34.90;64.30;;;;;;4196470;28;20029;-63
2022/07/01 09:34:39;;;;;;;5.80;3.28;;;34.80;64.00;;;;;;4195168;28;20098;-65
2022/07/01 09:36:40;;;;;;;3.85;3.55;;;34.60;64.20;;;;;;4197379;28;20406;-68
2022/07/01 09:38:48;;;;;;;6.22;3.38;;;34.20;63.70;;;;;;4207013;28;20028;-61
2022/07/01 09:40:54;;;;;;;6.97;3.35;;;34.00;63.70;;;;;;4198523;28;20045;-66
2022/07/01 09:42:55;;;;;;;9.02;3.80;;;34.10;64.00;;;;;;4199312;28;20037;-68
2022/07/01 09:45:06;;;;;;;5.53;3.65;;;34.30;64.00;;;;;;4195724;28;20025;-66
2022/07/01 09:47:07;;;;;;;3.65;3.35;;;34.60;63.70;;;;;;4196475;28;20028;-61
2022/07/01 09:49:08;;;;;;;6.35;3.50;;;34.30;63.10;;;;;;4195219;28;20060;-65
2022/07/01 09:51:11;;;;;;;4.05;3.33;;;34.00;63.30;;;;;;4196952;28;20062;-62
2022/07/01 09:53:13;;;;;;;4.43;3.15;;;34.00;63.50;;;;;;4195241;28;20029;-66
2022/07/01 09:55:14;;;;;;;3.88;3.42;;;33.80;63.50;;;;;;4196575;28;20051;-62
2022/07/01 09:57:20;;;;;;;4.32;3.58;;;33.70;63.80;;;;;;4211164;28;20055;-64
2022/07/01 09:59:21;;;;;;;4.97;3.33;;;33.70;63.60;;;;;;4212784;28;20028;-63
2022/07/01 10:01:23;;;;;;;5.32;3.78;;;33.80;63.70;;;;;;4210016;28;20025;-63
2022/07/01 10:03:26;;;;;;;5.63;3.90;;;33.80;63.70;;;;;;4196917;28;20455;-65
2022/07/01 10:05:29;;;;;;;7.88;3.65;;;33.70;63.90;;;;;;4194997;28;20033;-63
2022/07/01 10:07:45;;;;;;;6.60;3.75;;;33.70;64.50;;;;;;4196639;28;20041;-64
2022/07/01 10:10:21;;;;;;;7.38;3.40;;;33.90;65.20;;;;;;4194767;28;20057;-65
2022/07/01 10:12:48;;;;;;;4.78;3.70;;;34.00;65.00;;;;;;4211267;28;20066;-63
2022/07/01 10:14:51;;;;;;;5.28;3.85;;;34.20;64.50;;;;;;4192389;28;20542;-63
2022/07/01 10:16:52;;;;;;;6.72;3.25;;;34.40;64.10;;;;;;4195972;28;20380;-65
2022/07/01 10:18:55;;;;;;;6.38;3.40;;;34.50;63.50;;;;;;4194666;28;20082;-64
2022/07/01 10:20:58;;;;;;;4.30;3.47;;;34.60;63.30;;;;;;4179952;28;20477;-64
2022/07/01 10:23:05;;;;;;;3.55;3.22;;;34.50;63.00;;;;;;4180961;28;20086;-63
2022/07/01 10:25:31;;;;;;;3.67;3.30;;;34.40;63.20;;;;;;4194719;28;20036;-62
2022/07/01 10:27:32;;;;;;;7.15;3.90;;;34.30;63.40;;;;;;4194234;28;20044;-65
2022/07/01 10:29:34;;;;;;;7.00;3.67;;;34.30;63.70;;;;;;4200186;28;20052;-65
2022/07/01 10:31:37;;;;;;;5.70;3.75;;;34.30;63.60;;;;;;4194544;28;20082;-63
2022/07/01 10:33:41;;;;;;;6.38;3.60;;;34.40;63.60;;;;;;4196004;28;20032;-62
2022/07/01 10:35:47;;;;;;;7.32;3.65;;;34.30;63.40;;;;;;4194988;28;20094;-64
2022/07/01 10:37:59;;;;;;;6.47;3.33;;;34.20;63.20;;;;;;4196287;28;20538;-65
2022/07/01 10:40:02;;;;;;;5.93;3.38;;;34.00;63.50;;;;;;4194778;28;20024;-64
2022/07/01 10:42:05;;;;;;;5.10;2.83;;;33.90;63.20;;;;;;4196222;28;20093;-66
2022/07/01 10:44:12;;;;;;;4.88;2.40;;;34.00;63.00;;;;;;4202618;28;20756;-67